sensor_id;sensor_type;location;lat;lon;timestamp;temperature;humidity
40151;DHT22;25866;52.420;10.640;2022-10-16T00:01:27;15.00;99.90
40151;DHT22;25866;52.420;10.640;2022-10-16T00:03:54;15.00;99.90
40151;DHT22;25866;52.420;10.640;2022-10-16T00:06:21;14.90;99.90
40151;DHT22;25866;52.420;10.640;2022-10-16T00:08:48;14.90;99.90
40151;DHT22;25866;52.420;10.640;2022-10-16T00:11:33;14.90;99.90
40151;DHT22;25866;52.420;10.640;2022-10-16T00:14:04;14.80;99.90
40151;DHT22;25866;52.420;10.640;2022-10-16T00:16:30;14.60;99.90
40151;DHT22;25866;52.420;10.640;2022-10-16T00:18:57;14.50;99.90
40151;DHT22;25866;52.420;10.640;2022-10-16T00:21:26;14.50;99.90
40151;DHT22;25866;52.420;10.640;2022-10-16T00:23:57;14.50;99.90
40151;DHT22;25866;52.420;10.640;2022-10-16T00:26:25;14.50;99.90
40151;DHT22;25866;52.420;10.640;2022-10-16T00:28:51;14.40;99.90
40151;DHT22;25866;52.420;10.640;2022-10-16T00:31:20;14.40;99.90
40151;DHT22;25866;52.420;10.640;2022-10-16T00:33:46;14.40;99.90
40151;DHT22;25866;52.420;10.640;2022-10-16T00:36:14;14.40;99.90
40151;DHT22;25866;52.420;10.640;2022-10-16T00:38:40;14.40;99.90
40151;DHT22;25866;52.420;10.640;2022-10-16T00:41:09;14.30;99.90
40151;DHT22;25866;52.420;10.640;2022-10-16T00:46:21;14.30;99.90
40151;DHT22;25866;52.420;10.640;2022-10-16T00:49:00;14.30;99.90
40151;DHT22;25866;52.420;10.640;2022-10-16T00:51:38;14.30;99.90
40151;DHT22;25866;52.420;10.640;2022-10-16T00:54:27;14.30;99.90
40151;DHT22;25866;52.420;10.640;2022-10-16T00:56:57;14.30;99.90
40151;DHT22;25866;52.420;10.640;2022-10-16T00:59:28;14.30;99.90
40151;DHT22;25866;52.420;10.640;2022-10-16T01:01:55;14.20;99.90
40151;DHT22;25866;52.420;10.640;2022-10-16T01:04:22;14.20;99.90
40151;DHT22;25866;52.420;10.640;2022-10-16T01:07:24;14.20;99.90
40151;DHT22;25866;52.420;10.640;2022-10-16T01:12:38;14.20;99.90
40151;DHT22;25866;52.420;10.640;2022-10-16T01:15:38;14.20;99.90
40151;DHT22;25866;52.420;10.640;2022-10-16T01:20:37;14.20;99.90
40151;DHT22;25866;52.420;10.640;2022-10-16T01:26:18;14.20;99.90
40151;DHT22;25866;52.420;10.640;2022-10-16T01:29:18;14.20;99.90
40151;DHT22;25866;52.420;10.640;2022-10-16T01:31:51;14.20;99.90
40151;DHT22;25866;52.420;10.640;2022-10-16T01:40:13;14.20;99.90
40151;DHT22;25866;52.420;10.640;2022-10-16T01:42:42;14.20;99.90
40151;DHT22;25866;52.420;10.640;2022-10-16T01:45:12;14.20;99.90
40151;DHT22;25866;52.420;10.640;2022-10-16T01:47:39;14.20;99.90
40151;DHT22;25866;52.420;10.640;2022-10-16T01:50:08;14.20;99.90
40151;DHT22;25866;52.420;10.640;2022-10-16T01:52:40;14.10;99.90
40151;DHT22;25866;52.420;10.640;2022-10-16T01:55:10;14.10;99.90
40151;DHT22;25866;52.420;10.640;2022-10-16T01:57:41;14.10;99.90
40151;DHT22;25866;52.420;10.640;2022-10-16T02:00:11;14.10;99.90
40151;DHT22;25866;52.420;10.640;2022-10-16T02:02:43;14.10;99.90
40151;DHT22;25866;52.420;10.640;2022-10-16T02:05:41;14.10;99.90
40151;DHT22;25866;52.420;10.640;2022-10-16T02:08:08;14.00;99.90
40151;DHT22;25866;52.420;10.640;2022-10-16T02:10:35;14.00;99.90
40151;DHT22;25866;52.420;10.640;2022-10-16T02:13:23;14.00;99.90
40151;DHT22;25866;52.420;10.640;2022-10-16T02:15:51;14.00;99.90
40151;DHT22;25866;52.420;10.640;2022-10-16T02:18:17;14.00;99.90
40151;DHT22;25866;52.420;10.640;2022-10-16T02:21:15;14.00;99.90
40151;DHT22;25866;52.420;10.640;2022-10-16T02:26:40;14.00;99.90
40151;DHT22;25866;52.420;10.640;2022-10-16T02:29:12;14.00;99.90
40151;DHT22;25866;52.420;10.640;2022-10-16T02:31:43;14.00;99.90
40151;DHT22;25866;52.420;10.640;2022-10-16T02:34:12;14.10;99.90
40151;DHT22;25866;52.420;10.640;2022-10-16T02:36:40;14.10;99.90
40151;DHT22;25866;52.420;10.640;2022-10-16T02:39:07;14.10;99.90
40151;DHT22;25866;52.420;10.640;2022-10-16T02:41:33;14.10;99.90
40151;DHT22;25866;52.420;10.640;2022-10-16T02:43:59;14.10;99.90
40151;DHT22;25866;52.420;10.640;2022-10-16T02:46:25;14.20;99.90
40151;DHT22;25866;52.420;10.640;2022-10-16T02:48:50;14.20;99.90
40151;DHT22;25866;52.420;10.640;2022-10-16T02:51:16;14.20;99.90
40151;DHT22;25866;52.420;10.640;2022-10-16T02:53:42;14.20;99.90
40151;DHT22;25866;52.420;10.640;2022-10-16T02:56:08;14.30;99.90
40151;DHT22;25866;52.420;10.640;2022-10-16T02:58:33;14.30;99.90
40151;DHT22;25866;52.420;10.640;2022-10-16T03:00:59;14.30;99.90
40151;DHT22;25866;52.420;10.640;2022-10-16T03:03:25;14.30;99.90
40151;DHT22;25866;52.420;10.640;2022-10-16T03:05:50;14.30;99.90
40151;DHT22;25866;52.420;10.640;2022-10-16T03:08:16;14.30;99.90
40151;DHT22;25866;52.420;10.640;2022-10-16T03:10:42;14.20;99.90
40151;DHT22;25866;52.420;10.640;2022-10-16T03:13:08;14.20;99.90
40151;DHT22;25866;52.420;10.640;2022-10-16T03:15:34;14.20;99.90
40151;DHT22;25866;52.420;10.640;2022-10-16T03:18:00;14.10;99.90
40151;DHT22;25866;52.420;10.640;2022-10-16T03:20:26;14.10;99.90
40151;DHT22;25866;52.420;10.640;2022-10-16T03:22:52;14.10;99.90
40151;DHT22;25866;52.420;10.640;2022-10-16T03:25:18;14.00;99.90
40151;DHT22;25866;52.420;10.640;2022-10-16T03:27:44;14.00;99.90
40151;DHT22;25866;52.420;10.640;2022-10-16T03:30:10;14.00;99.90
40151;DHT22;25866;52.420;10.640;2022-10-16T03:32:36;14.00;99.90
40151;DHT22;25866;52.420;10.640;2022-10-16T03:35:02;14.00;99.90
40151;DHT22;25866;52.420;10.640;2022-10-16T03:37:27;14.00;99.90
40151;DHT22;25866;52.420;10.640;2022-10-16T03:39:53;13.90;99.90
40151;DHT22;25866;52.420;10.640;2022-10-16T03:42:19;13.90;99.90
40151;DHT22;25866;52.420;10.640;2022-10-16T03:44:44;13.90;99.90
40151;DHT22;25866;52.420;10.640;2022-10-16T03:47:10;13.80;99.90
40151;DHT22;25866;52.420;10.640;2022-10-16T03:49:36;13.80;99.90
40151;DHT22;25866;52.420;10.640;2022-10-16T03:52:01;13.80;99.90
40151;DHT22;25866;52.420;10.640;2022-10-16T03:54:28;13.80;99.90
40151;DHT22;25866;52.420;10.640;2022-10-16T03:56:54;13.70;99.90
40151;DHT22;25866;52.420;10.640;2022-10-16T03:59:19;13.70;99.90
40151;DHT22;25866;52.420;10.640;2022-10-16T04:01:45;13.70;99.90
40151;DHT22;25866;52.420;10.640;2022-10-16T04:04:12;13.70;99.90
40151;DHT22;25866;52.420;10.640;2022-10-16T04:06:38;13.70;99.90
40151;DHT22;25866;52.420;10.640;2022-10-16T04:09:04;13.60;99.90
40151;DHT22;25866;52.420;10.640;2022-10-16T04:11:29;13.60;99.90
40151;DHT22;25866;52.420;10.640;2022-10-16T04:13:55;13.70;99.90
40151;DHT22;25866;52.420;10.640;2022-10-16T04:16:21;13.70;99.90
40151;DHT22;25866;52.420;10.640;2022-10-16T04:18:47;13.60;99.90
40151;DHT22;25866;52.420;10.640;2022-10-16T04:21:12;13.60;99.90
40151;DHT22;25866;52.420;10.640;2022-10-16T04:23:38;13.50;99.90
40151;DHT22;25866;52.420;10.640;2022-10-16T04:26:04;13.50;99.90
40151;DHT22;25866;52.420;10.640;2022-10-16T04:28:30;13.40;99.90
40151;DHT22;25866;52.420;10.640;2022-10-16T04:30:55;13.40;99.90
40151;DHT22;25866;52.420;10.640;2022-10-16T04:33:21;13.40;99.90
40151;DHT22;25866;52.420;10.640;2022-10-16T04:35:47;13.30;99.90
40151;DHT22;25866;52.420;10.640;2022-10-16T04:38:13;13.30;99.90
40151;DHT22;25866;52.420;10.640;2022-10-16T04:40:38;13.20;99.90
40151;DHT22;25866;52.420;10.640;2022-10-16T04:43:05;13.30;99.90
40151;DHT22;25866;52.420;10.640;2022-10-16T04:45:31;13.20;99.90
40151;DHT22;25866;52.420;10.640;2022-10-16T04:47:58;13.30;99.90
40151;DHT22;25866;52.420;10.640;2022-10-16T04:50:24;13.20;99.90
40151;DHT22;25866;52.420;10.640;2022-10-16T04:52:49;13.20;99.90
40151;DHT22;25866;52.420;10.640;2022-10-16T04:55:15;13.20;99.90
40151;DHT22;25866;52.420;10.640;2022-10-16T04:57:41;13.20;99.90
40151;DHT22;25866;52.420;10.640;2022-10-16T05:00:07;13.10;99.90
40151;DHT22;25866;52.420;10.640;2022-10-16T05:02:33;13.10;99.90
40151;DHT22;25866;52.420;10.640;2022-10-16T05:04:59;13.10;99.90
40151;DHT22;25866;52.420;10.640;2022-10-16T05:07:25;13.10;99.90
40151;DHT22;25866;52.420;10.640;2022-10-16T05:09:51;13.20;99.90
40151;DHT22;25866;52.420;10.640;2022-10-16T05:12:18;13.20;99.90
40151;DHT22;25866;52.420;10.640;2022-10-16T05:14:43;13.20;99.90
40151;DHT22;25866;52.420;10.640;2022-10-16T05:17:09;13.20;99.90
40151;DHT22;25866;52.420;10.640;2022-10-16T05:19:35;13.20;99.90
40151;DHT22;25866;52.420;10.640;2022-10-16T05:22:01;13.20;99.90
40151;DHT22;25866;52.420;10.640;2022-10-16T05:24:26;13.10;99.90
40151;DHT22;25866;52.420;10.640;2022-10-16T05:26:53;13.10;99.90
40151;DHT22;25866;52.420;10.640;2022-10-16T05:29:18;13.00;99.90
40151;DHT22;25866;52.420;10.640;2022-10-16T05:31:44;12.90;99.90
40151;DHT22;25866;52.420;10.640;2022-10-16T05:34:10;12.90;99.90
40151;DHT22;25866;52.420;10.640;2022-10-16T05:36:36;13.00;99.90
40151;DHT22;25866;52.420;10.640;2022-10-16T05:39:02;13.00;99.90
40151;DHT22;25866;52.420;10.640;2022-10-16T05:41:28;13.00;99.90
40151;DHT22;25866;52.420;10.640;2022-10-16T05:43:53;13.00;99.90
40151;DHT22;25866;52.420;10.640;2022-10-16T05:46:20;13.00;99.90
40151;DHT22;25866;52.420;10.640;2022-10-16T05:48:46;13.00;99.90
40151;DHT22;25866;52.420;10.640;2022-10-16T05:51:13;13.00;99.90
40151;DHT22;25866;52.420;10.640;2022-10-16T05:53:40;13.00;99.90
40151;DHT22;25866;52.420;10.640;2022-10-16T05:56:07;13.00;99.90
40151;DHT22;25866;52.420;10.640;2022-10-16T05:58:35;13.00;99.90
40151;DHT22;25866;52.420;10.640;2022-10-16T06:01:07;12.90;99.90
40151;DHT22;25866;52.420;10.640;2022-10-16T06:03:34;13.00;99.90
40151;DHT22;25866;52.420;10.640;2022-10-16T06:06:11;13.00;99.90
40151;DHT22;25866;52.420;10.640;2022-10-16T06:08:37;13.00;99.90
40151;DHT22;25866;52.420;10.640;2022-10-16T06:11:05;13.00;99.90
40151;DHT22;25866;52.420;10.640;2022-10-16T06:13:31;13.00;99.90
40151;DHT22;25866;52.420;10.640;2022-10-16T06:15:59;13.00;99.90
40151;DHT22;25866;52.420;10.640;2022-10-16T06:18:26;13.00;99.90
40151;DHT22;25866;52.420;10.640;2022-10-16T06:20:51;13.00;99.90
40151;DHT22;25866;52.420;10.640;2022-10-16T06:23:18;13.00;99.90
40151;DHT22;25866;52.420;10.640;2022-10-16T06:25:43;13.00;99.90
40151;DHT22;25866;52.420;10.640;2022-10-16T06:28:09;13.00;99.90
40151;DHT22;25866;52.420;10.640;2022-10-16T06:30:35;13.00;99.90
40151;DHT22;25866;52.420;10.640;2022-10-16T06:33:00;13.00;99.90
40151;DHT22;25866;52.420;10.640;2022-10-16T06:35:26;13.10;99.90
40151;DHT22;25866;52.420;10.640;2022-10-16T06:37:55;13.10;99.90
40151;DHT22;25866;52.420;10.640;2022-10-16T06:40:21;13.20;99.90
40151;DHT22;25866;52.420;10.640;2022-10-16T06:42:46;13.20;99.90
40151;DHT22;25866;52.420;10.640;2022-10-16T06:45:12;13.30;99.90
40151;DHT22;25866;52.420;10.640;2022-10-16T06:47:38;13.30;99.90
40151;DHT22;25866;52.420;10.640;2022-10-16T06:50:04;13.30;99.90
40151;DHT22;25866;52.420;10.640;2022-10-16T06:52:32;13.40;99.90
40151;DHT22;25866;52.420;10.640;2022-10-16T06:54:59;13.40;99.90
40151;DHT22;25866;52.420;10.640;2022-10-16T06:57:24;13.40;99.90
40151;DHT22;25866;52.420;10.640;2022-10-16T06:59:50;13.50;99.90
40151;DHT22;25866;52.420;10.640;2022-10-16T07:02:16;13.60;99.90
40151;DHT22;25866;52.420;10.640;2022-10-16T07:04:41;13.70;99.90
40151;DHT22;25866;52.420;10.640;2022-10-16T07:07:07;13.80;99.90
40151;DHT22;25866;52.420;10.640;2022-10-16T07:09:33;13.80;99.90
40151;DHT22;25866;52.420;10.640;2022-10-16T07:11:58;13.90;99.90
40151;DHT22;25866;52.420;10.640;2022-10-16T07:14:24;13.90;99.90
40151;DHT22;25866;52.420;10.640;2022-10-16T07:16:50;13.90;99.90
40151;DHT22;25866;52.420;10.640;2022-10-16T07:19:16;14.00;99.90
40151;DHT22;25866;52.420;10.640;2022-10-16T07:21:43;14.10;99.90
40151;DHT22;25866;52.420;10.640;2022-10-16T07:24:15;14.20;99.90
40151;DHT22;25866;52.420;10.640;2022-10-16T07:26:43;14.30;99.90
40151;DHT22;25866;52.420;10.640;2022-10-16T07:29:18;14.30;99.90
40151;DHT22;25866;52.420;10.640;2022-10-16T07:31:44;14.40;99.90
40151;DHT22;25866;52.420;10.640;2022-10-16T07:34:11;14.50;99.90
40151;DHT22;25866;52.420;10.640;2022-10-16T07:36:38;14.60;99.90
40151;DHT22;25866;52.420;10.640;2022-10-16T07:39:04;14.70;99.90
40151;DHT22;25866;52.420;10.640;2022-10-16T07:41:30;14.80;99.90
40151;DHT22;25866;52.420;10.640;2022-10-16T07:43:58;14.90;99.90
40151;DHT22;25866;52.420;10.640;2022-10-16T07:46:27;15.00;99.90
40151;DHT22;25866;52.420;10.640;2022-10-16T07:48:53;15.10;99.90
40151;DHT22;25866;52.420;10.640;2022-10-16T07:51:21;15.20;99.90
40151;DHT22;25866;52.420;10.640;2022-10-16T07:53:47;15.30;99.90
40151;DHT22;25866;52.420;10.640;2022-10-16T07:56:14;15.40;99.90
40151;DHT22;25866;52.420;10.640;2022-10-16T07:58:40;15.40;99.90
40151;DHT22;25866;52.420;10.640;2022-10-16T08:01:09;15.50;99.90
40151;DHT22;25866;52.420;10.640;2022-10-16T08:03:35;15.60;99.90
40151;DHT22;25866;52.420;10.640;2022-10-16T08:06:01;15.70;99.90
40151;DHT22;25866;52.420;10.640;2022-10-16T08:08:27;15.70;99.90
40151;DHT22;25866;52.420;10.640;2022-10-16T08:10:54;15.80;99.90
40151;DHT22;25866;52.420;10.640;2022-10-16T08:13:19;15.90;99.90
40151;DHT22;25866;52.420;10.640;2022-10-16T08:15:46;16.00;99.90
40151;DHT22;25866;52.420;10.640;2022-10-16T08:18:13;16.00;99.90
40151;DHT22;25866;52.420;10.640;2022-10-16T08:20:40;16.10;99.90
40151;DHT22;25866;52.420;10.640;2022-10-16T08:23:06;16.10;99.90
40151;DHT22;25866;52.420;10.640;2022-10-16T08:25:34;16.10;99.90
40151;DHT22;25866;52.420;10.640;2022-10-16T08:28:07;16.10;99.90
40151;DHT22;25866;52.420;10.640;2022-10-16T08:30:33;16.00;99.90
40151;DHT22;25866;52.420;10.640;2022-10-16T08:32:59;16.10;99.90
40151;DHT22;25866;52.420;10.640;2022-10-16T08:35:26;16.20;99.90
40151;DHT22;25866;52.420;10.640;2022-10-16T08:37:52;16.20;99.90
40151;DHT22;25866;52.420;10.640;2022-10-16T08:40:25;16.20;99.90
40151;DHT22;25866;52.420;10.640;2022-10-16T08:48:30;16.30;99.90
40151;DHT22;25866;52.420;10.640;2022-10-16T08:51:01;16.20;99.90
40151;DHT22;25866;52.420;10.640;2022-10-16T08:53:31;16.20;99.90
40151;DHT22;25866;52.420;10.640;2022-10-16T08:55:59;16.20;99.90
40151;DHT22;25866;52.420;10.640;2022-10-16T08:58:29;16.10;99.90
40151;DHT22;25866;52.420;10.640;2022-10-16T09:00:58;16.10;99.90
40151;DHT22;25866;52.420;10.640;2022-10-16T09:03:43;16.10;99.90
40151;DHT22;25866;52.420;10.640;2022-10-16T09:06:45;16.20;99.90
40151;DHT22;25866;52.420;10.640;2022-10-16T09:12:38;16.60;99.90
40151;DHT22;25866;52.420;10.640;2022-10-16T09:21:13;16.80;99.90
40151;DHT22;25866;52.420;10.640;2022-10-16T09:23:39;16.80;99.90
40151;DHT22;25866;52.420;10.640;2022-10-16T09:26:11;16.70;99.90
40151;DHT22;25866;52.420;10.640;2022-10-16T09:28:37;16.70;99.90
40151;DHT22;25866;52.420;10.640;2022-10-16T09:31:03;16.60;99.90
40151;DHT22;25866;52.420;10.640;2022-10-16T09:33:37;16.50;99.90
40151;DHT22;25866;52.420;10.640;2022-10-16T09:36:05;16.40;99.90
40151;DHT22;25866;52.420;10.640;2022-10-16T09:38:36;16.40;99.90
40151;DHT22;25866;52.420;10.640;2022-10-16T09:41:17;16.50;99.90
40151;DHT22;25866;52.420;10.640;2022-10-16T09:43:56;16.60;99.90
40151;DHT22;25866;52.420;10.640;2022-10-16T09:46:35;16.80;99.90
40151;DHT22;25866;52.420;10.640;2022-10-16T09:49:37;16.90;99.90
40151;DHT22;25866;52.420;10.640;2022-10-16T09:52:12;16.90;99.90
40151;DHT22;25866;52.420;10.640;2022-10-16T09:54:52;17.00;99.90
40151;DHT22;25866;52.420;10.640;2022-10-16T09:57:18;17.00;99.90
40151;DHT22;25866;52.420;10.640;2022-10-16T09:59:55;17.20;99.90
40151;DHT22;25866;52.420;10.640;2022-10-16T10:02:30;17.20;99.90
40151;DHT22;25866;52.420;10.640;2022-10-16T10:04:57;17.30;99.90
40151;DHT22;25866;52.420;10.640;2022-10-16T10:07:31;17.30;99.90
40151;DHT22;25866;52.420;10.640;2022-10-16T10:10:03;17.50;99.90
40151;DHT22;25866;52.420;10.640;2022-10-16T10:12:31;17.50;99.90
40151;DHT22;25866;52.420;10.640;2022-10-16T10:15:10;17.50;99.90
40151;DHT22;25866;52.420;10.640;2022-10-16T10:17:49;17.50;99.90
40151;DHT22;25866;52.420;10.640;2022-10-16T10:20:29;17.50;99.90
40151;DHT22;25866;52.420;10.640;2022-10-16T10:22:57;17.30;99.90
40151;DHT22;25866;52.420;10.640;2022-10-16T10:28:53;17.30;99.90
40151;DHT22;25866;52.420;10.640;2022-10-16T10:31:42;17.50;99.90
40151;DHT22;25866;52.420;10.640;2022-10-16T10:39:56;17.70;99.90
40151;DHT22;25866;52.420;10.640;2022-10-16T10:42:51;17.70;99.90
40151;DHT22;25866;52.420;10.640;2022-10-16T10:45:36;17.70;99.90
40151;DHT22;25866;52.420;10.640;2022-10-16T10:50:57;17.70;99.90
40151;DHT22;25866;52.420;10.640;2022-10-16T10:56:30;17.80;99.90
40151;DHT22;25866;52.420;10.640;2022-10-16T11:01:59;18.00;99.90
40151;DHT22;25866;52.420;10.640;2022-10-16T11:07:18;18.10;99.90
40151;DHT22;25866;52.420;10.640;2022-10-16T11:09:51;18.30;99.90
40151;DHT22;25866;52.420;10.640;2022-10-16T11:12:31;18.40;99.90
40151;DHT22;25866;52.420;10.640;2022-10-16T11:15:07;18.30;99.90
40151;DHT22;25866;52.420;10.640;2022-10-16T11:18:15;18.20;99.90
40151;DHT22;25866;52.420;10.640;2022-10-16T11:21:04;18.10;99.90
40151;DHT22;25866;52.420;10.640;2022-10-16T11:23:48;18.00;99.90
40151;DHT22;25866;52.420;10.640;2022-10-16T11:26:20;18.00;99.90
40151;DHT22;25866;52.420;10.640;2022-10-16T11:28:50;18.00;99.90
40151;DHT22;25866;52.420;10.640;2022-10-16T11:31:28;17.90;99.90
40151;DHT22;25866;52.420;10.640;2022-10-16T11:36:47;17.80;99.90
40151;DHT22;25866;52.420;10.640;2022-10-16T11:39:29;18.00;99.90
40151;DHT22;25866;52.420;10.640;2022-10-16T11:42:02;18.40;99.90
40151;DHT22;25866;52.420;10.640;2022-10-16T11:44:42;18.60;99.90
40151;DHT22;25866;52.420;10.640;2022-10-16T11:49:41;18.60;99.90
40151;DHT22;25866;52.420;10.640;2022-10-16T11:52:33;18.80;99.90
40151;DHT22;25866;52.420;10.640;2022-10-16T11:57:48;19.00;99.90
40151;DHT22;25866;52.420;10.640;2022-10-16T12:00:28;19.10;99.90
40151;DHT22;25866;52.420;10.640;2022-10-16T12:06:11;19.20;99.90
40151;DHT22;25866;52.420;10.640;2022-10-16T12:08:39;19.30;99.90
40151;DHT22;25866;52.420;10.640;2022-10-16T12:16:59;19.30;99.90
40151;DHT22;25866;52.420;10.640;2022-10-16T12:19:27;19.40;99.90
40151;DHT22;25866;52.420;10.640;2022-10-16T12:21:57;19.40;99.90
40151;DHT22;25866;52.420;10.640;2022-10-16T12:24:39;19.40;99.90
40151;DHT22;25866;52.420;10.640;2022-10-16T12:27:29;19.50;99.90
40151;DHT22;25866;52.420;10.640;2022-10-16T12:30:02;19.70;99.90
40151;DHT22;25866;52.420;10.640;2022-10-16T12:32:38;19.90;99.90
40151;DHT22;25866;52.420;10.640;2022-10-16T12:35:06;20.10;99.10
40151;DHT22;25866;52.420;10.640;2022-10-16T12:37:42;19.90;98.90
40151;DHT22;25866;52.420;10.640;2022-10-16T12:40:46;19.90;99.10
40151;DHT22;25866;52.420;10.640;2022-10-16T12:43:26;19.90;98.50
40151;DHT22;25866;52.420;10.640;2022-10-16T12:46:00;20.00;99.30
40151;DHT22;25866;52.420;10.640;2022-10-16T12:48:26;20.10;98.60
40151;DHT22;25866;52.420;10.640;2022-10-16T12:50:53;20.10;97.50
40151;DHT22;25866;52.420;10.640;2022-10-16T12:53:26;20.20;97.90
40151;DHT22;25866;52.420;10.640;2022-10-16T13:17:17;20.60;97.20
40151;DHT22;25866;52.420;10.640;2022-10-16T13:23:02;20.60;97.30
40151;DHT22;25866;52.420;10.640;2022-10-16T13:26:15;20.80;97.40
40151;DHT22;25866;52.420;10.640;2022-10-16T13:28:27;20.90;96.40
40151;DHT22;25866;52.420;10.640;2022-10-16T13:30:56;20.90;96.50
40151;DHT22;25866;52.420;10.640;2022-10-16T13:33:36;20.80;96.50
40151;DHT22;25866;52.420;10.640;2022-10-16T13:36:03;20.30;96.60
40151;DHT22;25866;52.420;10.640;2022-10-16T13:38:35;20.00;97.20
40151;DHT22;25866;52.420;10.640;2022-10-16T13:41:03;19.70;97.60
40151;DHT22;25866;52.420;10.640;2022-10-16T13:43:45;19.60;98.30
40151;DHT22;25866;52.420;10.640;2022-10-16T13:46:19;19.60;97.70
40151;DHT22;25866;52.420;10.640;2022-10-16T13:49:03;19.50;98.10
40151;DHT22;25866;52.420;10.640;2022-10-16T13:51:30;19.80;97.50
40151;DHT22;25866;52.420;10.640;2022-10-16T13:53:57;20.00;97.90
40151;DHT22;25866;52.420;10.640;2022-10-16T13:56:29;20.30;97.30
40151;DHT22;25866;52.420;10.640;2022-10-16T13:59:00;20.40;96.40
40151;DHT22;25866;52.420;10.640;2022-10-16T14:01:29;20.40;96.50
40151;DHT22;25866;52.420;10.640;2022-10-16T14:04:02;20.30;96.30
40151;DHT22;25866;52.420;10.640;2022-10-16T14:06:27;20.30;96.00
40151;DHT22;25866;52.420;10.640;2022-10-16T14:09:03;20.40;96.80
40151;DHT22;25866;52.420;10.640;2022-10-16T14:11:30;20.40;96.40
40151;DHT22;25866;52.420;10.640;2022-10-16T14:13:56;20.10;96.60
40151;DHT22;25866;52.420;10.640;2022-10-16T14:16:28;20.00;97.10
40151;DHT22;25866;52.420;10.640;2022-10-16T14:19:05;19.80;97.60
40151;DHT22;25866;52.420;10.640;2022-10-16T14:21:35;19.60;98.30
40151;DHT22;25866;52.420;10.640;2022-10-16T14:24:13;19.70;98.40
40151;DHT22;25866;52.420;10.640;2022-10-16T14:26:43;19.80;98.30
40151;DHT22;25866;52.420;10.640;2022-10-16T14:29:18;20.00;98.80
40151;DHT22;25866;52.420;10.640;2022-10-16T14:32:20;20.10;97.60
40151;DHT22;25866;52.420;10.640;2022-10-16T14:34:53;20.10;97.20
40151;DHT22;25866;52.420;10.640;2022-10-16T14:37:30;20.10;97.60
40151;DHT22;25866;52.420;10.640;2022-10-16T14:39:56;20.00;97.60
40151;DHT22;25866;52.420;10.640;2022-10-16T14:42:24;19.90;97.40
40151;DHT22;25866;52.420;10.640;2022-10-16T14:44:51;19.80;97.60
40151;DHT22;25866;52.420;10.640;2022-10-16T14:47:23;19.70;98.10
40151;DHT22;25866;52.420;10.640;2022-10-16T14:49:53;19.60;98.30
40151;DHT22;25866;52.420;10.640;2022-10-16T14:52:20;19.40;98.20
40151;DHT22;25866;52.420;10.640;2022-10-16T14:54:49;19.20;98.40
40151;DHT22;25866;52.420;10.640;2022-10-16T14:57:23;19.10;98.90
40151;DHT22;25866;52.420;10.640;2022-10-16T14:59:49;19.00;99.40
40151;DHT22;25866;52.420;10.640;2022-10-16T15:02:28;19.00;99.90
40151;DHT22;25866;52.420;10.640;2022-10-16T15:04:55;18.90;99.60
40151;DHT22;25866;52.420;10.640;2022-10-16T15:07:21;18.80;99.90
40151;DHT22;25866;52.420;10.640;2022-10-16T15:09:47;18.70;99.90
40151;DHT22;25866;52.420;10.640;2022-10-16T15:12:13;18.70;99.90
40151;DHT22;25866;52.420;10.640;2022-10-16T15:14:39;18.60;99.80
40151;DHT22;25866;52.420;10.640;2022-10-16T15:17:04;18.60;99.90
40151;DHT22;25866;52.420;10.640;2022-10-16T15:19:30;18.50;99.40
40151;DHT22;25866;52.420;10.640;2022-10-16T15:21:56;18.40;99.60
40151;DHT22;25866;52.420;10.640;2022-10-16T15:24:22;18.40;99.80
40151;DHT22;25866;52.420;10.640;2022-10-16T15:26:48;18.30;99.60
40151;DHT22;25866;52.420;10.640;2022-10-16T15:29:15;18.30;99.80
40151;DHT22;25866;52.420;10.640;2022-10-16T15:31:41;18.20;99.90
40151;DHT22;25866;52.420;10.640;2022-10-16T15:34:12;18.10;99.90
40151;DHT22;25866;52.420;10.640;2022-10-16T15:36:39;18.00;99.90
40151;DHT22;25866;52.420;10.640;2022-10-16T15:39:12;18.00;99.90
40151;DHT22;25866;52.420;10.640;2022-10-16T15:41:38;17.90;99.90
40151;DHT22;25866;52.420;10.640;2022-10-16T15:44:03;17.90;99.90
40151;DHT22;25866;52.420;10.640;2022-10-16T15:46:29;17.80;99.90
40151;DHT22;25866;52.420;10.640;2022-10-16T15:48:57;17.70;99.90
40151;DHT22;25866;52.420;10.640;2022-10-16T15:51:24;17.70;99.90
40151;DHT22;25866;52.420;10.640;2022-10-16T15:53:50;17.70;99.90
40151;DHT22;25866;52.420;10.640;2022-10-16T15:56:17;17.60;99.90
40151;DHT22;25866;52.420;10.640;2022-10-16T15:58:43;17.50;99.90
40151;DHT22;25866;52.420;10.640;2022-10-16T16:01:09;17.40;99.90
40151;DHT22;25866;52.420;10.640;2022-10-16T16:03:37;17.30;99.90
40151;DHT22;25866;52.420;10.640;2022-10-16T16:06:07;17.30;99.90
40151;DHT22;25866;52.420;10.640;2022-10-16T16:08:33;17.20;99.90
40151;DHT22;25866;52.420;10.640;2022-10-16T16:11:13;17.10;99.90
40151;DHT22;25866;52.420;10.640;2022-10-16T16:13:39;17.00;99.90
40151;DHT22;25866;52.420;10.640;2022-10-16T16:16:07;16.90;99.90
40151;DHT22;25866;52.420;10.640;2022-10-16T16:18:33;16.80;99.90
40151;DHT22;25866;52.420;10.640;2022-10-16T16:20:59;16.70;99.90
40151;DHT22;25866;52.420;10.640;2022-10-16T16:23:24;16.60;99.90
40151;DHT22;25866;52.420;10.640;2022-10-16T16:26:13;16.40;99.90
40151;DHT22;25866;52.420;10.640;2022-10-16T16:28:40;16.30;99.90
40151;DHT22;25866;52.420;10.640;2022-10-16T16:31:06;16.30;99.90
40151;DHT22;25866;52.420;10.640;2022-10-16T16:33:32;16.20;99.90
40151;DHT22;25866;52.420;10.640;2022-10-16T16:35:59;16.20;99.90
40151;DHT22;25866;52.420;10.640;2022-10-16T16:38:26;16.10;99.90
40151;DHT22;25866;52.420;10.640;2022-10-16T16:40:52;16.00;99.90
40151;DHT22;25866;52.420;10.640;2022-10-16T16:43:19;15.80;99.90
40151;DHT22;25866;52.420;10.640;2022-10-16T16:45:47;15.80;99.90
40151;DHT22;25866;52.420;10.640;2022-10-16T16:48:13;15.80;99.90
40151;DHT22;25866;52.420;10.640;2022-10-16T16:50:38;15.80;99.90
40151;DHT22;25866;52.420;10.640;2022-10-16T16:53:04;15.70;99.90
40151;DHT22;25866;52.420;10.640;2022-10-16T16:55:30;15.70;99.90
40151;DHT22;25866;52.420;10.640;2022-10-16T16:57:56;15.60;99.90
40151;DHT22;25866;52.420;10.640;2022-10-16T17:00:22;15.60;99.90
40151;DHT22;25866;52.420;10.640;2022-10-16T17:02:49;15.50;99.90
40151;DHT22;25866;52.420;10.640;2022-10-16T17:05:15;15.50;99.90
40151;DHT22;25866;52.420;10.640;2022-10-16T17:07:41;15.50;99.90
40151;DHT22;25866;52.420;10.640;2022-10-16T17:10:07;15.50;99.90